sensor_id;sensor_type;location;lat;lon;timestamp;P1;durP1;ratioP1;P2;durP2;ratioP2
11427;SDS011;5770;44.504;11.346;2024-03-08T00:01:36;17.17;;;7.55;;
11427;SDS011;5770;44.504;11.346;2024-03-08T00:04:03;12.45;;;6.20;;
11427;SDS011;5770;44.504;11.346;2024-03-08T00:06:31;9.23;;;6.43;;
11427;SDS011;5770;44.504;11.346;2024-03-08T00:08:58;10.00;;;6.00;;
11427;SDS011;5770;44.504;11.346;2024-03-08T00:11:26;8.40;;;6.32;;
11427;SDS011;5770;44.504;11.346;2024-03-08T00:13:53;11.90;;;6.45;;
11427;SDS011;5770;44.504;11.346;2024-03-08T00:16:20;7.75;;;6.20;;
11427;SDS011;5770;44.504;11.346;2024-03-08T00:18:49;9.32;;;6.07;;
11427;SDS011;5770;44.504;11.346;2024-03-08T00:21:16;12.50;;;6.32;;
11427;SDS011;5770;44.504;11.346;2024-03-08T00:23:44;10.20;;;6.32;;
11427;SDS011;5770;44.504;11.346;2024-03-08T00:26:12;16.42;;;6.20;;
11427;SDS011;5770;44.504;11.346;2024-03-08T00:28:39;15.80;;;5.85;;
11427;SDS011;5770;44.504;11.346;2024-03-08T00:31:06;10.60;;;6.28;;
11427;SDS011;5770;44.504;11.346;2024-03-08T00:33:34;8.57;;;5.25;;
11427;SDS011;5770;44.504;11.346;2024-03-08T00:36:03;9.68;;;5.60;;
11427;SDS011;5770;44.504;11.346;2024-03-08T00:38:30;14.68;;;5.93;;
11427;SDS011;5770;44.504;11.346;2024-03-08T00:40:59;8.75;;;5.00;;
11427;SDS011;5770;44.504;11.346;2024-03-08T00:43:27;7.13;;;5.22;;
11427;SDS011;5770;44.504;11.346;2024-03-08T00:45:55;10.27;;;6.03;;
11427;SDS011;5770;44.504;11.346;2024-03-08T00:48:23;11.23;;;6.07;;
11427;SDS011;5770;44.504;11.346;2024-03-08T00:50:50;11.73;;;6.72;;
11427;SDS011;5770;44.504;11.346;2024-03-08T00:53:19;8.90;;;6.25;;
11427;SDS011;5770;44.504;11.346;2024-03-08T00:55:46;10.15;;;6.55;;
11427;SDS011;5770;44.504;11.346;2024-03-08T00:58:13;9.30;;;6.47;;
11427;SDS011;5770;44.504;11.346;2024-03-08T01:00:39;12.98;;;6.68;;
11427;SDS011;5770;44.504;11.346;2024-03-08T01:03:06;14.43;;;7.35;;
11427;SDS011;5770;44.504;11.346;2024-03-08T01:05:33;12.90;;;6.80;;
11427;SDS011;5770;44.504;11.346;2024-03-08T01:08:01;10.55;;;7.05;;
11427;SDS011;5770;44.504;11.346;2024-03-08T01:10:31;9.80;;;7.00;;
11427;SDS011;5770;44.504;11.346;2024-03-08T01:12:58;12.55;;;7.38;;
11427;SDS011;5770;44.504;11.346;2024-03-08T01:15:25;13.98;;;6.63;;
11427;SDS011;5770;44.504;11.346;2024-03-08T01:17:52;11.90;;;7.25;;
11427;SDS011;5770;44.504;11.346;2024-03-08T01:20:20;12.75;;;7.38;;
11427;SDS011;5770;44.504;11.346;2024-03-08T01:22:47;11.68;;;7.10;;
11427;SDS011;5770;44.504;11.346;2024-03-08T01:25:14;16.85;;;7.43;;
11427;SDS011;5770;44.504;11.346;2024-03-08T01:27:42;13.35;;;7.53;;
11427;SDS011;5770;44.504;11.346;2024-03-08T01:30:09;16.40;;;7.45;;
11427;SDS011;5770;44.504;11.346;2024-03-08T01:32:37;17.10;;;6.95;;
11427;SDS011;5770;44.504;11.346;2024-03-08T01:35:05;11.15;;;7.10;;
11427;SDS011;5770;44.504;11.346;2024-03-08T01:37:34;9.82;;;6.72;;
11427;SDS011;5770;44.504;11.346;2024-03-08T01:40:01;12.20;;;6.97;;
11427;SDS011;5770;44.504;11.346;2024-03-08T01:42:30;9.90;;;6.10;;
11427;SDS011;5770;44.504;11.346;2024-03-08T01:44:58;10.00;;;6.07;;
11427;SDS011;5770;44.504;11.346;2024-03-08T01:47:25;11.65;;;6.72;;
11427;SDS011;5770;44.504;11.346;2024-03-08T01:49:52;11.07;;;6.47;;
11427;SDS011;5770;44.504;11.346;2024-03-08T01:52:19;8.40;;;6.50;;
11427;SDS011;5770;44.504;11.346;2024-03-08T01:54:48;13.98;;;7.40;;
11427;SDS011;5770;44.504;11.346;2024-03-08T01:57:16;8.45;;;7.32;;
11427;SDS011;5770;44.504;11.346;2024-03-08T01:59:43;9.63;;;6.50;;
11427;SDS011;5770;44.504;11.346;2024-03-08T02:02:11;10.30;;;6.20;;
11427;SDS011;5770;44.504;11.346;2024-03-08T02:04:45;9.48;;;6.82;;
11427;SDS011;5770;44.504;11.346;2024-03-08T02:07:12;8.85;;;6.78;;
11427;SDS011;5770;44.504;11.346;2024-03-08T02:09:39;10.20;;;7.55;;
11427;SDS011;5770;44.504;11.346;2024-03-08T02:12:06;11.07;;;7.22;;
11427;SDS011;5770;44.504;11.346;2024-03-08T02:14:34;8.02;;;7.10;;
11427;SDS011;5770;44.504;11.346;2024-03-08T02:17:02;9.20;;;7.15;;
11427;SDS011;5770;44.504;11.346;2024-03-08T02:19:29;8.88;;;7.57;;
11427;SDS011;5770;44.504;11.346;2024-03-08T02:21:59;10.82;;;7.22;;
11427;SDS011;5770;44.504;11.346;2024-03-08T02:24:29;9.02;;;7.65;;
11427;SDS011;5770;44.504;11.346;2024-03-08T02:26:56;11.43;;;7.78;;
11427;SDS011;5770;44.504;11.346;2024-03-08T02:29:23;8.93;;;7.95;;
11427;SDS011;5770;44.504;11.346;2024-03-08T02:31:51;9.65;;;7.72;;
11427;SDS011;5770;44.504;11.346;2024-03-08T02:34:18;10.70;;;8.13;;
11427;SDS011;5770;44.504;11.346;2024-03-08T02:36:45;10.20;;;7.07;;
11427;SDS011;5770;44.504;11.346;2024-03-08T02:39:13;10.63;;;7.70;;
11427;SDS011;5770;44.504;11.346;2024-03-08T02:41:41;10.07;;;7.15;;
11427;SDS011;5770;44.504;11.346;2024-03-08T02:44:08;9.20;;;7.47;;
11427;SDS011;5770;44.504;11.346;2024-03-08T02:46:35;10.73;;;7.43;;
11427;SDS011;5770;44.504;11.346;2024-03-08T02:49:02;10.05;;;7.97;;
11427;SDS011;5770;44.504;11.346;2024-03-08T02:51:29;12.48;;;7.82;;
11427;SDS011;5770;44.504;11.346;2024-03-08T02:53:57;13.38;;;7.90;;
11427;SDS011;5770;44.504;11.346;2024-03-08T02:56:25;12.40;;;8.77;;
11427;SDS011;5770;44.504;11.346;2024-03-08T02:58:52;11.07;;;8.30;;
11427;SDS011;5770;44.504;11.346;2024-03-08T03:01:19;10.20;;;8.13;;
11427;SDS011;5770;44.504;11.346;2024-03-08T03:03:47;12.15;;;8.68;;
11427;SDS011;5770;44.504;11.346;2024-03-08T03:06:14;9.82;;;8.63;;
11427;SDS011;5770;44.504;11.346;2024-03-08T03:08:41;10.48;;;8.88;;
11427;SDS011;5770;44.504;11.346;2024-03-08T03:11:10;11.32;;;8.75;;
11427;SDS011;5770;44.504;11.346;2024-03-08T03:13:40;11.70;;;8.60;;
11427;SDS011;5770;44.504;11.346;2024-03-08T03:16:07;11.23;;;8.65;;
11427;SDS011;5770;44.504;11.346;2024-03-08T03:18:35;11.05;;;8.63;;
11427;SDS011;5770;44.504;11.346;2024-03-08T03:21:02;10.85;;;8.55;;
11427;SDS011;5770;44.504;11.346;2024-03-08T03:23:32;13.50;;;8.43;;
11427;SDS011;5770;44.504;11.346;2024-03-08T03:25:59;11.73;;;9.00;;
11427;SDS011;5770;44.504;11.346;2024-03-08T03:28:27;14.57;;;9.60;;
11427;SDS011;5770;44.504;11.346;2024-03-08T03:30:55;12.02;;;9.35;;
11427;SDS011;5770;44.504;11.346;2024-03-08T03:33:23;11.02;;;9.18;;
11427;SDS011;5770;44.504;11.346;2024-03-08T03:35:51;11.73;;;7.90;;
11427;SDS011;5770;44.504;11.346;2024-03-08T03:38:18;12.32;;;8.50;;
11427;SDS011;5770;44.504;11.346;2024-03-08T03:40:48;12.38;;;8.45;;
11427;SDS011;5770;44.504;11.346;2024-03-08T03:43:17;10.90;;;8.55;;
11427;SDS011;5770;44.504;11.346;2024-03-08T03:45:44;9.45;;;7.40;;
11427;SDS011;5770;44.504;11.346;2024-03-08T03:48:12;10.98;;;7.90;;
11427;SDS011;5770;44.504;11.346;2024-03-08T03:50:39;12.27;;;7.63;;
11427;SDS011;5770;44.504;11.346;2024-03-08T03:53:06;11.52;;;6.88;;
11427;SDS011;5770;44.504;11.346;2024-03-08T03:55:34;8.77;;;6.40;;
11427;SDS011;5770;44.504;11.346;2024-03-08T03:58:02;9.48;;;6.38;;
11427;SDS011;5770;44.504;11.346;2024-03-08T04:00:29;7.95;;;6.28;;
11427;SDS011;5770;44.504;11.346;2024-03-08T04:02:56;8.90;;;7.20;;
11427;SDS011;5770;44.504;11.346;2024-03-08T04:05:27;10.88;;;6.38;;
11427;SDS011;5770;44.504;11.346;2024-03-08T04:07:54;9.48;;;6.53;;
11427;SDS011;5770;44.504;11.346;2024-03-08T04:10:22;9.95;;;7.20;;
11427;SDS011;5770;44.504;11.346;2024-03-08T04:12:52;7.20;;;6.10;;
11427;SDS011;5770;44.504;11.346;2024-03-08T04:15:19;8.73;;;6.63;;
11427;SDS011;5770;44.504;11.346;2024-03-08T04:17:46;8.40;;;6.40;;
11427;SDS011;5770;44.504;11.346;2024-03-08T04:20:13;8.30;;;6.95;;
11427;SDS011;5770;44.504;11.346;2024-03-08T04:22:43;10.40;;;6.82;;
11427;SDS011;5770;44.504;11.346;2024-03-08T04:25:12;7.97;;;6.30;;
11427;SDS011;5770;44.504;11.346;2024-03-08T04:27:39;9.68;;;6.95;;
11427;SDS011;5770;44.504;11.346;2024-03-08T04:30:06;8.52;;;6.60;;
11427;SDS011;5770;44.504;11.346;2024-03-08T04:32:33;11.30;;;7.15;;
11427;SDS011;5770;44.504;11.346;2024-03-08T04:35:01;9.27;;;6.82;;
11427;SDS011;5770;44.504;11.346;2024-03-08T04:37:28;11.48;;;7.43;;
11427;SDS011;5770;44.504;11.346;2024-03-08T04:39:57;8.75;;;6.70;;
11427;SDS011;5770;44.504;11.346;2024-03-08T04:42:24;9.93;;;6.95;;
11427;SDS011;5770;44.504;11.346;2024-03-08T04:44:52;6.93;;;6.05;;
11427;SDS011;5770;44.504;11.346;2024-03-08T04:47:19;8.55;;;6.80;;
11427;SDS011;5770;44.504;11.346;2024-03-08T04:49:46;10.10;;;6.68;;
11427;SDS011;5770;44.504;11.346;2024-03-08T04:52:15;8.75;;;7.10;;
11427;SDS011;5770;44.504;11.346;2024-03-08T04:54:43;7.82;;;6.35;;
11427;SDS011;5770;44.504;11.346;2024-03-08T04:57:12;13.73;;;6.82;;
11427;SDS011;5770;44.504;11.346;2024-03-08T04:59:39;10.27;;;7.18;;
11427;SDS011;5770;44.504;11.346;2024-03-08T05:02:06;13.57;;;6.72;;
11427;SDS011;5770;44.504;11.346;2024-03-08T05:04:33;10.85;;;6.65;;
11427;SDS011;5770;44.504;11.346;2024-03-08T05:07:01;9.05;;;6.47;;
11427;SDS011;5770;44.504;11.346;2024-03-08T05:09:29;10.38;;;6.40;;
11427;SDS011;5770;44.504;11.346;2024-03-08T05:11:57;12.90;;;6.45;;
11427;SDS011;5770;44.504;11.346;2024-03-08T05:14:26;8.75;;;6.03;;
11427;SDS011;5770;44.504;11.346;2024-03-08T05:16:53;10.05;;;6.93;;
11427;SDS011;5770;44.504;11.346;2024-03-08T05:19:20;9.85;;;6.63;;
11427;SDS011;5770;44.504;11.346;2024-03-08T05:21:48;10.45;;;6.38;;
11427;SDS011;5770;44.504;11.346;2024-03-08T05:24:16;10.65;;;6.30;;
11427;SDS011;5770;44.504;11.346;2024-03-08T05:26:44;8.43;;;5.85;;
11427;SDS011;5770;44.504;11.346;2024-03-08T05:29:12;6.75;;;5.40;;
11427;SDS011;5770;44.504;11.346;2024-03-08T05:31:45;9.30;;;5.78;;
11427;SDS011;5770;44.504;11.346;2024-03-08T05:34:14;8.40;;;5.65;;
11427;SDS011;5770;44.504;11.346;2024-03-08T05:36:41;9.43;;;5.68;;
11427;SDS011;5770;44.504;11.346;2024-03-08T05:39:09;8.32;;;5.72;;
11427;SDS011;5770;44.504;11.346;2024-03-08T05:41:37;11.05;;;5.88;;
11427;SDS011;5770;44.504;11.346;2024-03-08T05:44:04;8.93;;;6.00;;
11427;SDS011;5770;44.504;11.346;2024-03-08T05:46:32;8.73;;;5.68;;
11427;SDS011;5770;44.504;11.346;2024-03-08T05:49:00;7.22;;;6.00;;
11427;SDS011;5770;44.504;11.346;2024-03-08T05:51:30;12.60;;;6.43;;
11427;SDS011;5770;44.504;11.346;2024-03-08T05:53:59;11.93;;;5.95;;
11427;SDS011;5770;44.504;11.346;2024-03-08T05:56:27;14.23;;;6.93;;
11427;SDS011;5770;44.504;11.346;2024-03-08T05:58:54;12.35;;;5.60;;
11427;SDS011;5770;44.504;11.346;2024-03-08T06:01:22;21.13;;;6.50;;
11427;SDS011;5770;44.504;11.346;2024-03-08T06:03:48;10.48;;;6.00;;
11427;SDS011;5770;44.504;11.346;2024-03-08T06:06:17;11.13;;;5.43;;
11427;SDS011;5770;44.504;11.346;2024-03-08T06:08:44;10.20;;;5.03;;
11427;SDS011;5770;44.504;11.346;2024-03-08T06:11:12;8.98;;;5.45;;
11427;SDS011;5770;44.504;11.346;2024-03-08T06:13:40;15.48;;;5.38;;
11427;SDS011;5770;44.504;11.346;2024-03-08T06:16:07;11.85;;;5.30;;
11427;SDS011;5770;44.504;11.346;2024-03-08T06:18:34;9.65;;;5.20;;
11427;SDS011;5770;44.504;11.346;2024-03-08T06:21:02;7.13;;;5.20;;
11427;SDS011;5770;44.504;11.346;2024-03-08T06:23:31;8.98;;;5.30;;
11427;SDS011;5770;44.504;11.346;2024-03-08T06:25:58;7.82;;;5.32;;
11427;SDS011;5770;44.504;11.346;2024-03-08T06:28:28;9.57;;;5.38;;
11427;SDS011;5770;44.504;11.346;2024-03-08T06:30:55;10.00;;;5.10;;
11427;SDS011;5770;44.504;11.346;2024-03-08T06:33:22;6.40;;;5.00;;
11427;SDS011;5770;44.504;11.346;2024-03-08T06:35:51;6.75;;;4.97;;
11427;SDS011;5770;44.504;11.346;2024-03-08T06:38:19;8.77;;;5.57;;
11427;SDS011;5770;44.504;11.346;2024-03-08T06:40:48;9.32;;;5.57;;
11427;SDS011;5770;44.504;11.346;2024-03-08T06:43:16;15.88;;;5.78;;
11427;SDS011;5770;44.504;11.346;2024-03-08T06:45:43;8.25;;;4.57;;
11427;SDS011;5770;44.504;11.346;2024-03-08T06:48:13;9.82;;;4.55;;
11427;SDS011;5770;44.504;11.346;2024-03-08T06:50:40;24.63;;;6.30;;
11427;SDS011;5770;44.504;11.346;2024-03-08T06:53:08;11.38;;;5.70;;
11427;SDS011;5770;44.504;11.346;2024-03-08T06:55:34;11.55;;;4.72;;
11427;SDS011;5770;44.504;11.346;2024-03-08T06:58:03;17.38;;;5.63;;
11427;SDS011;5770;44.504;11.346;2024-03-08T07:00:31;10.13;;;5.45;;
11427;SDS011;5770;44.504;11.346;2024-03-08T07:02:59;9.90;;;5.80;;
11427;SDS011;5770;44.504;11.346;2024-03-08T07:05:26;8.52;;;5.07;;
11427;SDS011;5770;44.504;11.346;2024-03-08T07:07:54;10.30;;;5.07;;
11427;SDS011;5770;44.504;11.346;2024-03-08T07:10:21;10.23;;;5.57;;
11427;SDS011;5770;44.504;11.346;2024-03-08T07:12:49;8.40;;;5.38;;
11427;SDS011;5770;44.504;11.346;2024-03-08T07:15:19;19.88;;;6.40;;
11427;SDS011;5770;44.504;11.346;2024-03-08T07:17:48;18.70;;;7.18;;
11427;SDS011;5770;44.504;11.346;2024-03-08T07:20:17;12.25;;;6.20;;
11427;SDS011;5770;44.504;11.346;2024-03-08T07:22:45;13.23;;;7.25;;
11427;SDS011;5770;44.504;11.346;2024-03-08T07:25:14;13.05;;;8.20;;
11427;SDS011;5770;44.504;11.346;2024-03-08T07:27:46;12.95;;;9.70;;
11427;SDS011;5770;44.504;11.346;2024-03-08T07:30:13;25.90;;;11.52;;
11427;SDS011;5770;44.504;11.346;2024-03-08T07:33:04;15.68;;;11.55;;
11427;SDS011;5770;44.504;11.346;2024-03-08T07:35:32;20.45;;;11.75;;
11427;SDS011;5770;44.504;11.346;2024-03-08T07:38:02;20.80;;;15.13;;
11427;SDS011;5770;44.504;11.346;2024-03-08T07:40:30;19.38;;;12.55;;
11427;SDS011;5770;44.504;11.346;2024-03-08T07:42:57;22.13;;;14.55;;
11427;SDS011;5770;44.504;11.346;2024-03-08T07:45:25;19.98;;;14.52;;
11427;SDS011;5770;44.504;11.346;2024-03-08T07:47:52;18.08;;;14.90;;
11427;SDS011;5770;44.504;11.346;2024-03-08T07:50:22;25.73;;;18.50;;
11427;SDS011;5770;44.504;11.346;2024-03-08T07:52:49;23.45;;;16.90;;
11427;SDS011;5770;44.504;11.346;2024-03-08T07:55:16;22.88;;;18.30;;
11427;SDS011;5770;44.504;11.346;2024-03-08T07:57:44;26.60;;;17.38;;
11427;SDS011;5770;44.504;11.346;2024-03-08T08:00:13;20.35;;;17.10;;
11427;SDS011;5770;44.504;11.346;2024-03-08T08:02:43;25.58;;;18.27;;
11427;SDS011;5770;44.504;11.346;2024-03-08T08:05:10;24.60;;;18.10;;
11427;SDS011;5770;44.504;11.346;2024-03-08T08:07:40;22.02;;;17.30;;
11427;SDS011;5770;44.504;11.346;2024-03-08T08:10:12;20.58;;;16.52;;
11427;SDS011;5770;44.504;11.346;2024-03-08T08:12:43;29.27;;;21.95;;
11427;SDS011;5770;44.504;11.346;2024-03-08T08:15:10;19.88;;;15.48;;
11427;SDS011;5770;44.504;11.346;2024-03-08T08:17:37;22.00;;;17.48;;
11427;SDS011;5770;44.504;11.346;2024-03-08T08:20:05;22.98;;;16.38;;
11427;SDS011;5770;44.504;11.346;2024-03-08T08:22:32;23.48;;;16.90;;
11427;SDS011;5770;44.504;11.346;2024-03-08T08:25:00;22.13;;;16.02;;
11427;SDS011;5770;44.504;11.346;2024-03-08T08:27:28;20.38;;;16.63;;
11427;SDS011;5770;44.504;11.346;2024-03-08T08:29:55;18.45;;;15.27;;
11427;SDS011;5770;44.504;11.346;2024-03-08T08:32:22;21.80;;;16.05;;
11427;SDS011;5770;44.504;11.346;2024-03-08T08:34:49;20.48;;;15.40;;
11427;SDS011;5770;44.504;11.346;2024-03-08T08:37:17;18.60;;;15.02;;
11427;SDS011;5770;44.504;11.346;2024-03-08T08:39:44;26.38;;;16.52;;
11427;SDS011;5770;44.504;11.346;2024-03-08T08:42:12;30.05;;;17.52;;
11427;SDS011;5770;44.504;11.346;2024-03-08T08:44:39;23.05;;;18.17;;
11427;SDS011;5770;44.504;11.346;2024-03-08T08:47:06;19.73;;;15.98;;
11427;SDS011;5770;44.504;11.346;2024-03-08T08:49:33;21.65;;;15.05;;
11427;SDS011;5770;44.504;11.346;2024-03-08T08:52:00;19.83;;;15.45;;
11427;SDS011;5770;44.504;11.346;2024-03-08T08:54:28;18.90;;;15.50;;
11427;SDS011;5770;44.504;11.346;2024-03-08T08:56:56;17.63;;;15.63;;
11427;SDS011;5770;44.504;11.346;2024-03-08T08:59:24;21.90;;;17.02;;
11427;SDS011;5770;44.504;11.346;2024-03-08T09:01:52;23.88;;;16.23;;
11427;SDS011;5770;44.504;11.346;2024-03-08T09:04:20;20.98;;;16.38;;
11427;SDS011;5770;44.504;11.346;2024-03-08T09:06:48;20.08;;;15.88;;
11427;SDS011;5770;44.504;11.346;2024-03-08T09:09:15;21.00;;;15.98;;
11427;SDS011;5770;44.504;11.346;2024-03-08T09:11:42;19.58;;;16.67;;
11427;SDS011;5770;44.504;11.346;2024-03-08T09:14:11;19.20;;;17.08;;
11427;SDS011;5770;44.504;11.346;2024-03-08T09:16:40;20.80;;;17.77;;
11427;SDS011;5770;44.504;11.346;2024-03-08T09:19:08;19.63;;;17.15;;
11427;SDS011;5770;44.504;11.346;2024-03-08T09:21:36;20.85;;;17.90;;
11427;SDS011;5770;44.504;11.346;2024-03-08T09:24:04;21.83;;;17.83;;
11427;SDS011;5770;44.504;11.346;2024-03-08T09:26:32;22.13;;;18.25;;
11427;SDS011;5770;44.504;11.346;2024-03-08T09:28:59;21.80;;;17.27;;
11427;SDS011;5770;44.504;11.346;2024-03-08T09:31:26;22.17;;;17.55;;
11427;SDS011;5770;44.504;11.346;2024-03-08T09:33:55;24.25;;;17.75;;
11427;SDS011;5770;44.504;11.346;2024-03-08T09:36:22;22.30;;;17.20;;
11427;SDS011;5770;44.504;11.346;2024-03-08T09:38:50;23.52;;;17.73;;
11427;SDS011;5770;44.504;11.346;2024-03-08T09:41:18;24.27;;;19.17;;
11427;SDS011;5770;44.504;11.346;2024-03-08T09:43:45;19.98;;;16.70;;
11427;SDS011;5770;44.504;11.346;2024-03-08T09:46:13;21.88;;;17.73;;
11427;SDS011;5770;44.504;11.346;2024-03-08T09:48:41;20.90;;;18.00;;
11427;SDS011;5770;44.504;11.346;2024-03-08T09:51:10;25.13;;;17.58;;
11427;SDS011;5770;44.504;11.346;2024-03-08T09:53:40;22.67;;;16.90;;
11427;SDS011;5770;44.504;11.346;2024-03-08T09:56:08;21.60;;;15.93;;
11427;SDS011;5770;44.504;11.346;2024-03-08T09:58:36;27.33;;;18.00;;
11427;SDS011;5770;44.504;11.346;2024-03-08T10:01:18;21.05;;;16.38;;
11427;SDS011;5770;44.504;11.346;2024-03-08T10:03:46;19.30;;;15.98;;
11427;SDS011;5770;44.504;11.346;2024-03-08T10:06:16;17.98;;;15.93;;
11427;SDS011;5770;44.504;11.346;2024-03-08T10:08:48;18.80;;;15.32;;
11427;SDS011;5770;44.504;11.346;2024-03-08T10:11:16;19.67;;;15.23;;
11427;SDS011;5770;44.504;11.346;2024-03-08T10:13:44;16.63;;;14.90;;
11427;SDS011;5770;44.504;11.346;2024-03-08T10:16:12;17.38;;;14.85;;
11427;SDS011;5770;44.504;11.346;2024-03-08T10:18:39;15.95;;;14.07;;
11427;SDS011;5770;44.504;11.346;2024-03-08T10:21:07;17.55;;;13.65;;
11427;SDS011;5770;44.504;11.346;2024-03-08T10:23:37;14.05;;;12.20;;
11427;SDS011;5770;44.504;11.346;2024-03-08T10:26:11;17.58;;;13.10;;
11427;SDS011;5770;44.504;11.346;2024-03-08T10:28:39;16.45;;;13.07;;
11427;SDS011;5770;44.504;11.346;2024-03-08T10:31:07;15.02;;;12.65;;
11427;SDS011;5770;44.504;11.346;2024-03-08T10:33:35;15.32;;;12.38;;
11427;SDS011;5770;44.504;11.346;2024-03-08T10:36:05;15.10;;;12.40;;
11427;SDS011;5770;44.504;11.346;2024-03-08T10:38:33;18.58;;;13.40;;
11427;SDS011;5770;44.504;11.346;2024-03-08T10:41:05;18.95;;;14.43;;
11427;SDS011;5770;44.504;11.346;2024-03-08T10:43:36;21.35;;;15.13;;
11427;SDS011;5770;44.504;11.346;2024-03-08T10:46:20;19.05;;;14.93;;
11427;SDS011;5770;44.504;11.346;2024-03-08T10:48:55;64.65;;;40.40;;
11427;SDS011;5770;44.504;11.346;2024-03-08T10:51:28;20.88;;;15.48;;
11427;SDS011;5770;44.504;11.346;2024-03-08T10:53:57;21.17;;;14.15;;
11427;SDS011;5770;44.504;11.346;2024-03-08T10:56:25;17.42;;;12.13;;
11427;SDS011;5770;44.504;11.346;2024-03-08T10:58:53;15.52;;;12.43;;
11427;SDS011;5770;44.504;11.346;2024-03-08T11:01:21;16.55;;;12.70;;
11427;SDS011;5770;44.504;11.346;2024-03-08T11:03:49;10.80;;;9.45;;
11427;SDS011;5770;44.504;11.346;2024-03-08T11:06:22;10.25;;;8.52;;
11427;SDS011;5770;44.504;11.346;2024-03-08T11:22:33;10.10;;;7.88;;
11427;SDS011;5770;44.504;11.346;2024-03-08T11:25:32;10.40;;;7.65;;
11427;SDS011;5770;44.504;11.346;2024-03-08T11:28:20;10.80;;;7.30;;
11427;SDS011;5770;44.504;11.346;2024-03-08T11:37:34;10.48;;;7.13;;
11427;SDS011;5770;44.504;11.346;2024-03-08T11:40:15;8.57;;;6.32;;
11427;SDS011;5770;44.504;11.346;2024-03-08T11:42:52;8.30;;;6.68;;
11427;SDS011;5770;44.504;11.346;2024-03-08T11:45:47;8.90;;;6.38;;
11427;SDS011;5770;44.504;11.346;2024-03-08T11:51:36;8.65;;;6.32;;
11427;SDS011;5770;44.504;11.346;2024-03-08T12:16:06;6.22;;;4.72;;
11427;SDS011;5770;44.504;11.346;2024-03-08T12:21:31;7.88;;;6.05;;
11427;SDS011;5770;44.504;11.346;2024-03-08T12:24:22;8.20;;;5.82;;
11427;SDS011;5770;44.504;11.346;2024-03-08T12:30:22;6.35;;;4.70;;
11427;SDS011;5770;44.504;11.346;2024-03-08T12:32:53;7.38;;;4.75;;
11427;SDS011;5770;44.504;11.346;2024-03-08T12:35:22;9.40;;;5.07;;
11427;SDS011;5770;44.504;11.346;2024-03-08T12:37:50;7.28;;;5.22;;
11427;SDS011;5770;44.504;11.346;2024-03-08T12:40:19;7.13;;;5.53;;
11427;SDS011;5770;44.504;11.346;2024-03-08T12:42:52;7.20;;;5.60;;
11427;SDS011;5770;44.504;11.346;2024-03-08T12:45:20;7.63;;;5.50;;
11427;SDS011;5770;44.504;11.346;2024-03-08T12:47:49;9.90;;;6.00;;
11427;SDS011;5770;44.504;11.346;2024-03-08T12:50:17;10.10;;;7.35;;
11427;SDS011;5770;44.504;11.346;2024-03-08T12:52:45;8.25;;;6.75;;
11427;SDS011;5770;44.504;11.346;2024-03-08T12:55:12;8.82;;;7.30;;
11427;SDS011;5770;44.504;11.346;2024-03-08T12:57:41;8.55;;;7.47;;
11427;SDS011;5770;44.504;11.346;2024-03-08T13:00:09;9.75;;;8.13;;
11427;SDS011;5770;44.504;11.346;2024-03-08T13:02:38;8.60;;;7.70;;
11427;SDS011;5770;44.504;11.346;2024-03-08T13:05:07;11.75;;;7.25;;
11427;SDS011;5770;44.504;11.346;2024-03-08T13:07:37;8.52;;;7.65;;
11427;SDS011;5770;44.504;11.346;2024-03-08T13:10:05;10.60;;;7.72;;
11427;SDS011;5770;44.504;11.346;2024-03-08T13:12:32;9.88;;;7.72;;
11427;SDS011;5770;44.504;11.346;2024-03-08T13:15:03;10.43;;;7.32;;
11427;SDS011;5770;44.504;11.346;2024-03-08T13:17:31;9.95;;;7.93;;
11427;SDS011;5770;44.504;11.346;2024-03-08T13:19:58;9.02;;;8.13;;
11427;SDS011;5770;44.504;11.346;2024-03-08T13:22:25;8.63;;;7.50;;
11427;SDS011;5770;44.504;11.346;2024-03-08T13:24:54;9.27;;;7.28;;
11427;SDS011;5770;44.504;11.346;2024-03-08T13:27:21;7.85;;;6.68;;
11427;SDS011;5770;44.504;11.346;2024-03-08T13:29:50;13.23;;;7.70;;
11427;SDS011;5770;44.504;11.346;2024-03-08T13:32:17;10.02;;;7.88;;
11427;SDS011;5770;44.504;11.346;2024-03-08T13:34:45;7.93;;;7.13;;
11427;SDS011;5770;44.504;11.346;2024-03-08T13:37:13;8.82;;;7.63;;
11427;SDS011;5770;44.504;11.346;2024-03-08T13:39:41;8.25;;;7.03;;
11427;SDS011;5770;44.504;11.346;2024-03-08T13:42:11;8.93;;;7.55;;
11427;SDS011;5770;44.504;11.346;2024-03-08T13:44:43;9.15;;;7.72;;
11427;SDS011;5770;44.504;11.346;2024-03-08T13:47:11;10.55;;;7.10;;
11427;SDS011;5770;44.504;11.346;2024-03-08T13:49:38;9.40;;;7.75;;
11427;SDS011;5770;44.504;11.346;2024-03-08T13:52:05;9.77;;;7.50;;
11427;SDS011;5770;44.504;11.346;2024-03-08T13:54:34;9.75;;;7.53;;
11427;SDS011;5770;44.504;11.346;2024-03-08T13:57:01;8.40;;;7.32;;
11427;SDS011;5770;44.504;11.346;2024-03-08T13:59:30;9.88;;;7.13;;
11427;SDS011;5770;44.504;11.346;2024-03-08T14:01:58;10.60;;;7.78;;
11427;SDS011;5770;44.504;11.346;2024-03-08T14:04:26;8.60;;;7.70;;
11427;SDS011;5770;44.504;11.346;2024-03-08T14:06:54;11.55;;;8.30;;
11427;SDS011;5770;44.504;11.346;2024-03-08T14:09:26;10.00;;;7.93;;
11427;SDS011;5770;44.504;11.346;2024-03-08T14:11:54;8.63;;;7.28;;
11427;SDS011;5770;44.504;11.346;2024-03-08T14:14:21;9.35;;;7.85;;
11427;SDS011;5770;44.504;11.346;2024-03-08T14:16:50;12.80;;;7.57;;
11427;SDS011;5770;44.504;11.346;2024-03-08T14:19:20;9.93;;;7.88;;
11427;SDS011;5770;44.504;11.346;2024-03-08T14:21:47;9.38;;;7.70;;
11427;SDS011;5770;44.504;11.346;2024-03-08T14:24:16;9.57;;;7.90;;
11427;SDS011;5770;44.504;11.346;2024-03-08T14:26:43;8.70;;;7.72;;
11427;SDS011;5770;44.504;11.346;2024-03-08T14:29:11;9.02;;;8.07;;
11427;SDS011;5770;44.504;11.346;2024-03-08T14:31:39;8.80;;;7.88;;
11427;SDS011;5770;44.504;11.346;2024-03-08T14:34:11;13.13;;;7.88;;
11427;SDS011;5770;44.504;11.346;2024-03-08T14:36:53;12.35;;;8.15;;
11427;SDS011;5770;44.504;11.346;2024-03-08T14:39:25;8.63;;;7.68;;
11427;SDS011;5770;44.504;11.346;2024-03-08T14:48:38;11.05;;;8.18;;
11427;SDS011;5770;44.504;11.346;2024-03-08T23:06:30;15.95;;;12.95;;
11427;SDS011;5770;44.504;11.346;2024-03-08T23:09:00;16.52;;;12.95;;
11427;SDS011;5770;44.504;11.346;2024-03-08T23:11:28;15.52;;;13.68;;
11427;SDS011;5770;44.504;11.346;2024-03-08T23:13:55;17.00;;;12.95;;
11427;SDS011;5770;44.504;11.346;2024-03-08T23:16:22;14.52;;;13.02;;
11427;SDS011;5770;44.504;11.346;2024-03-08T23:18:52;17.80;;;13.88;;
11427;SDS011;5770;44.504;11.346;2024-03-08T23:21:20;15.73;;;13.15;;
11427;SDS011;5770;44.504;11.346;2024-03-08T23:23:52;18.00;;;14.38;;
11427;SDS011;5770;44.504;11.346;2024-03-08T23:26:19;16.90;;;14.18;;
11427;SDS011;5770;44.504;11.346;2024-03-08T23:28:46;15.40;;;13.43;;
11427;SDS011;5770;44.504;11.346;2024-03-08T23:31:13;16.58;;;14.35;;
11427;SDS011;5770;44.504;11.346;2024-03-08T23:33:43;16.33;;;14.13;;
11427;SDS011;5770;44.504;11.346;2024-03-08T23:36:11;17.85;;;13.90;;
11427;SDS011;5770;44.504;11.346;2024-03-08T23:38:39;17.20;;;13.93;;
11427;SDS011;5770;44.504;11.346;2024-03-08T23:41:07;16.42;;;13.10;;
11427;SDS011;5770;44.504;11.346;2024-03-08T23:43:35;16.38;;;13.93;;
11427;SDS011;5770;44.504;11.346;2024-03-08T23:46:05;17.60;;;13.98;;
11427;SDS011;5770;44.504;11.346;2024-03-08T23:48:33;17.27;;;13.88;;
11427;SDS011;5770;44.504;11.346;2024-03-08T23:51:01;16.40;;;13.85;;
11427;SDS011;5770;44.504;11.346;2024-03-08T23:53:28;14.95;;;13.35;;
11427;SDS011;5770;44.504;11.346;2024-03-08T23:55:55;16.17;;;13.70;;
11427;SDS011;5770;44.504;11.346;2024-03-08T23:58:24;17.08;;;13.90;;
